sensor_id;sensor_type;location;lat;lon;timestamp;P1;durP1;ratioP1;P2;durP2;ratioP2
64022;SDS011;50264;52.088;5.296;2023-01-28T00:01:03;10.6;;;9.6;;
64022;SDS011;50264;52.088;5.296;2023-01-28T00:02:40;10.3;;;9.4;;
64022;SDS011;50264;52.088;5.296;2023-01-28T00:04:17;9.5;;;8.71;;
64022;SDS011;50264;52.088;5.296;2023-01-28T00:07:38;10.0;;;9.1;;
64022;SDS011;50264;52.088;5.296;2023-01-28T00:09:14;9.6;;;8.81;;
64022;SDS011;50264;52.088;5.296;2023-01-28T00:10:50;9.1;;;8.31;;
64022;SDS011;50264;52.088;5.296;2023-01-28T00:12:26;9.9;;;8.9;;
64022;SDS011;50264;52.088;5.296;2023-01-28T00:15:40;11.1;;;8.81;;
64022;SDS011;50264;52.088;5.296;2023-01-28T00:17:16;13.5;;;9.31;;
64022;SDS011;50264;52.088;5.296;2023-01-28T00:18:53;10.0;;;9.1;;
64022;SDS011;50264;52.088;5.296;2023-01-28T00:22:07;9.81;;;8.9;;
64022;SDS011;50264;52.088;5.296;2023-01-28T00:23:46;9.81;;;9.0;;
64022;SDS011;50264;52.088;5.296;2023-01-28T00:25:26;9.1;;;8.2;;
64022;SDS011;50264;52.088;5.296;2023-01-28T00:27:02;10.3;;;9.31;;
64022;SDS011;50264;52.088;5.296;2023-01-28T00:30:16;9.4;;;8.6;;
64022;SDS011;50264;52.088;5.296;2023-01-28T00:31:53;10.0;;;9.0;;
64022;SDS011;50264;52.088;5.296;2023-01-28T00:33:30;9.81;;;8.9;;
64022;SDS011;50264;52.088;5.296;2023-01-28T00:36:44;10.6;;;9.5;;
64022;SDS011;50264;52.088;5.296;2023-01-28T00:38:20;9.81;;;9.0;;
64022;SDS011;50264;52.088;5.296;2023-01-28T00:39:56;9.0;;;8.2;;
64022;SDS011;50264;52.088;5.296;2023-01-28T00:43:09;9.71;;;8.71;;
64022;SDS011;50264;52.088;5.296;2023-01-28T00:44:45;9.81;;;8.81;;
64022;SDS011;50264;52.088;5.296;2023-01-28T00:46:21;10.3;;;9.4;;
64022;SDS011;50264;52.088;5.296;2023-01-28T00:47:59;9.21;;;8.31;;
64022;SDS011;50264;52.088;5.296;2023-01-28T00:51:12;10.1;;;8.5;;
64022;SDS011;50264;52.088;5.296;2023-01-28T00:52:51;9.71;;;8.81;;
64022;SDS011;50264;52.088;5.296;2023-01-28T00:54:27;10.3;;;9.4;;
64022;SDS011;50264;52.088;5.296;2023-01-28T00:57:42;10.21;;;9.1;;
64022;SDS011;50264;52.088;5.296;2023-01-28T00:59:18;10.7;;;9.71;;
64022;SDS011;50264;52.088;5.296;2023-01-28T01:00:54;9.9;;;9.0;;
64022;SDS011;50264;52.088;5.296;2023-01-28T01:04:08;9.81;;;8.9;;
64022;SDS011;50264;52.088;5.296;2023-01-28T01:05:44;10.4;;;9.1;;
64022;SDS011;50264;52.088;5.296;2023-01-28T01:07:21;11.2;;;9.1;;
64022;SDS011;50264;52.088;5.296;2023-01-28T01:08:59;10.21;;;9.21;;
64022;SDS011;50264;52.088;5.296;2023-01-28T01:12:13;10.5;;;9.4;;
64022;SDS011;50264;52.088;5.296;2023-01-28T01:13:50;12.3;;;9.6;;
64022;SDS011;50264;52.088;5.296;2023-01-28T01:15:28;11.3;;;10.21;;
64022;SDS011;50264;52.088;5.296;2023-01-28T01:18:41;11.9;;;10.0;;
64022;SDS011;50264;52.088;5.296;2023-01-28T01:20:19;10.0;;;9.1;;
64022;SDS011;50264;52.088;5.296;2023-01-28T01:21:57;10.0;;;8.9;;
64022;SDS011;50264;52.088;5.296;2023-01-28T01:23:33;9.0;;;8.2;;
64022;SDS011;50264;52.088;5.296;2023-01-28T01:26:48;9.9;;;9.0;;
64022;SDS011;50264;52.088;5.296;2023-01-28T01:28:25;10.0;;;9.1;;
64022;SDS011;50264;52.088;5.296;2023-01-28T01:30:01;9.81;;;9.0;;
64022;SDS011;50264;52.088;5.296;2023-01-28T01:33:14;9.31;;;8.5;;
64022;SDS011;50264;52.088;5.296;2023-01-28T01:34:51;9.71;;;8.81;;
64022;SDS011;50264;52.088;5.296;2023-01-28T01:36:27;10.5;;;9.31;;
64022;SDS011;50264;52.088;5.296;2023-01-28T01:39:42;10.1;;;9.1;;
64022;SDS011;50264;52.088;5.296;2023-01-28T01:41:21;10.6;;;9.6;;
64022;SDS011;50264;52.088;5.296;2023-01-28T01:43:00;9.71;;;8.9;;
64022;SDS011;50264;52.088;5.296;2023-01-28T01:44:54;11.3;;;9.4;;
64022;SDS011;50264;52.088;5.296;2023-01-28T01:46:33;10.9;;;9.5;;
64022;SDS011;50264;52.088;5.296;2023-01-28T01:49:59;10.0;;;9.1;;
64022;SDS011;50264;52.088;5.296;2023-01-28T01:51:41;10.4;;;9.31;;
64022;SDS011;50264;52.088;5.296;2023-01-28T01:53:21;9.4;;;8.6;;
64022;SDS011;50264;52.088;5.296;2023-01-28T01:55:02;10.3;;;9.4;;
64022;SDS011;50264;52.088;5.296;2023-01-28T01:58:27;10.3;;;9.31;;
64022;SDS011;50264;52.088;5.296;2023-01-28T02:00:09;10.21;;;9.21;;
64022;SDS011;50264;52.088;5.296;2023-01-28T02:01:46;10.21;;;9.31;;
64022;SDS011;50264;52.088;5.296;2023-01-28T02:03:24;9.81;;;9.0;;
64022;SDS011;50264;52.088;5.296;2023-01-28T02:06:45;9.6;;;8.71;;
64022;SDS011;50264;52.088;5.296;2023-01-28T02:08:22;9.21;;;8.4;;
64022;SDS011;50264;52.088;5.296;2023-01-28T02:09:58;10.0;;;9.0;;
64022;SDS011;50264;52.088;5.296;2023-01-28T02:13:11;11.4;;;9.31;;
64022;SDS011;50264;52.088;5.296;2023-01-28T02:21:24;10.5;;;9.5;;
64022;SDS011;50264;52.088;5.296;2023-01-28T02:22:18;10.1;;;9.21;;
64022;SDS011;50264;52.088;5.296;2023-01-28T02:24:16;9.6;;;8.71;;
64022;SDS011;50264;52.088;5.296;2023-01-28T02:27:19;9.81;;;8.81;;
64022;SDS011;50264;52.088;5.296;2023-01-28T02:29:04;9.71;;;8.81;;
64022;SDS011;50264;52.088;5.296;2023-01-28T02:30:51;10.0;;;9.0;;
64022;SDS011;50264;52.088;5.296;2023-01-28T02:32:38;10.4;;;9.4;;
64022;SDS011;50264;52.088;5.296;2023-01-28T02:36:13;9.5;;;8.71;;
64022;SDS011;50264;52.088;5.296;2023-01-28T02:38:02;9.81;;;8.81;;
64022;SDS011;50264;52.088;5.296;2023-01-28T02:39:46;11.4;;;9.4;;
64022;SDS011;50264;52.088;5.296;2023-01-28T02:41:30;10.6;;;9.5;;
64022;SDS011;50264;52.088;5.296;2023-01-28T02:43:13;9.9;;;9.0;;
64022;SDS011;50264;52.088;5.296;2023-01-28T02:47:59;9.81;;;8.9;;
64022;SDS011;50264;52.088;5.296;2023-01-28T02:49:38;10.6;;;9.21;;
64022;SDS011;50264;52.088;5.296;2023-01-28T02:53:41;10.0;;;9.1;;
64022;SDS011;50264;52.088;5.296;2023-01-28T02:55:50;9.4;;;8.5;;
64022;SDS011;50264;52.088;5.296;2023-01-28T02:59:32;12.4;;;10.5;;
64022;SDS011;50264;52.088;5.296;2023-01-28T03:01:17;11.6;;;10.4;;
64022;SDS011;50264;52.088;5.296;2023-01-28T03:03:03;15.0;;;10.3;;
64022;SDS011;50264;52.088;5.296;2023-01-28T03:04:51;11.1;;;10.0;;
64022;SDS011;50264;52.088;5.296;2023-01-28T03:06:38;10.21;;;9.1;;
64022;SDS011;50264;52.088;5.296;2023-01-28T03:09:26;10.6;;;9.4;;
64022;SDS011;50264;52.088;5.296;2023-01-28T03:36:54;11.2;;;10.1;;
64022;SDS011;50264;52.088;5.296;2023-01-28T03:38:33;12.0;;;10.8;;
64022;SDS011;50264;52.088;5.296;2023-01-28T03:40:18;11.9;;;10.6;;
64022;SDS011;50264;52.088;5.296;2023-01-28T03:41:56;13.7;;;11.1;;
64022;SDS011;50264;52.088;5.296;2023-01-28T03:45:13;10.7;;;9.81;;
64022;SDS011;50264;52.088;5.296;2023-01-28T03:46:49;11.5;;;10.4;;
64022;SDS011;50264;52.088;5.296;2023-01-28T03:48:26;12.5;;;11.2;;
64022;SDS011;50264;52.088;5.296;2023-01-28T03:50:06;10.8;;;9.81;;
64022;SDS011;50264;52.088;5.296;2023-01-28T03:53:21;12.1;;;10.8;;
64022;SDS011;50264;52.088;5.296;2023-01-28T03:54:58;11.9;;;10.8;;
64022;SDS011;50264;52.088;5.296;2023-01-28T03:56:36;12.2;;;10.3;;
64022;SDS011;50264;52.088;5.296;2023-01-28T03:59:51;12.2;;;11.0;;
64022;SDS011;50264;52.088;5.296;2023-01-28T04:01:29;12.0;;;10.7;;
64022;SDS011;50264;52.088;5.296;2023-01-28T04:03:15;12.1;;;10.4;;
64022;SDS011;50264;52.088;5.296;2023-01-28T04:04:53;11.0;;;9.9;;
64022;SDS011;50264;52.088;5.296;2023-01-28T04:08:06;11.9;;;10.8;;
64022;SDS011;50264;52.088;5.296;2023-01-28T04:09:42;11.3;;;10.3;;
64022;SDS011;50264;52.088;5.296;2023-01-28T04:11:20;11.8;;;10.7;;
64022;SDS011;50264;52.088;5.296;2023-01-28T04:12:56;11.3;;;10.21;;
64022;SDS011;50264;52.088;5.296;2023-01-28T04:16:08;11.8;;;10.7;;
64022;SDS011;50264;52.088;5.296;2023-01-28T04:17:45;12.4;;;10.1;;
64022;SDS011;50264;52.088;5.296;2023-01-28T04:22:36;11.6;;;10.4;;
64022;SDS011;50264;52.088;5.296;2023-01-28T04:24:12;12.6;;;11.3;;
64022;SDS011;50264;52.088;5.296;2023-01-28T04:25:49;12.5;;;10.4;;
64022;SDS011;50264;52.088;5.296;2023-01-28T04:29:02;12.0;;;10.8;;
64022;SDS011;50264;52.088;5.296;2023-01-28T04:30:38;11.5;;;10.3;;
64022;SDS011;50264;52.088;5.296;2023-01-28T04:32:14;10.7;;;9.81;;
64022;SDS011;50264;52.088;5.296;2023-01-28T04:33:50;12.3;;;11.1;;
64022;SDS011;50264;52.088;5.296;2023-01-28T04:37:03;12.2;;;11.0;;
64022;SDS011;50264;52.088;5.296;2023-01-28T04:38:39;11.1;;;10.1;;
64022;SDS011;50264;52.088;5.296;2023-01-28T04:40:15;11.8;;;10.7;;
64022;SDS011;50264;52.088;5.296;2023-01-28T04:43:28;12.1;;;10.9;;
64022;SDS011;50264;52.088;5.296;2023-01-28T04:45:05;17.0;;;11.0;;
64022;SDS011;50264;52.088;5.296;2023-01-28T04:46:43;12.0;;;10.7;;
64022;SDS011;50264;52.088;5.296;2023-01-28T04:49:55;11.1;;;10.1;;
64022;SDS011;50264;52.088;5.296;2023-01-28T04:51:31;11.6;;;10.6;;
64022;SDS011;50264;52.088;5.296;2023-01-28T04:53:07;11.2;;;10.21;;
64022;SDS011;50264;52.088;5.296;2023-01-28T04:56:21;12.1;;;10.9;;
64022;SDS011;50264;52.088;5.296;2023-01-28T04:57:57;11.8;;;10.6;;
64022;SDS011;50264;52.088;5.296;2023-01-28T04:59:34;11.5;;;10.4;;
64022;SDS011;50264;52.088;5.296;2023-01-28T05:01:10;12.5;;;11.2;;
64022;SDS011;50264;52.088;5.296;2023-01-28T05:04:22;11.4;;;10.3;;
64022;SDS011;50264;52.088;5.296;2023-01-28T05:05:58;12.1;;;10.9;;
64022;SDS011;50264;52.088;5.296;2023-01-28T05:07:35;11.9;;;10.7;;
64022;SDS011;50264;52.088;5.296;2023-01-28T05:10:48;11.6;;;10.4;;
64022;SDS011;50264;52.088;5.296;2023-01-28T05:14:01;15.2;;;11.6;;
64022;SDS011;50264;52.088;5.296;2023-01-28T05:17:13;11.7;;;10.7;;
64022;SDS011;50264;52.088;5.296;2023-01-28T05:18:50;13.3;;;11.0;;
64022;SDS011;50264;52.088;5.296;2023-01-28T05:20:26;13.8;;;10.1;;
64022;SDS011;50264;52.088;5.296;2023-01-28T05:22:02;13.7;;;11.5;;
64022;SDS011;50264;52.088;5.296;2023-01-28T05:25:14;11.6;;;10.5;;
64022;SDS011;50264;52.088;5.296;2023-01-28T05:26:50;12.0;;;10.5;;
64022;SDS011;50264;52.088;5.296;2023-01-28T05:28:26;11.7;;;10.6;;
64022;SDS011;50264;52.088;5.296;2023-01-28T05:31:43;11.9;;;10.7;;
64022;SDS011;50264;52.088;5.296;2023-01-28T05:33:19;11.4;;;10.4;;
64022;SDS011;50264;52.088;5.296;2023-01-28T05:34:55;10.0;;;9.1;;
64022;SDS011;50264;52.088;5.296;2023-01-28T05:38:07;10.7;;;9.4;;
64022;SDS011;50264;52.088;5.296;2023-01-28T05:39:43;10.7;;;9.6;;
64022;SDS011;50264;52.088;5.296;2023-01-28T05:41:20;12.1;;;10.9;;
64022;SDS011;50264;52.088;5.296;2023-01-28T05:42:56;12.1;;;10.5;;
64022;SDS011;50264;52.088;5.296;2023-01-28T05:46:08;11.0;;;10.0;;
64022;SDS011;50264;52.088;5.296;2023-01-28T05:47:44;10.8;;;9.81;;
64022;SDS011;50264;52.088;5.296;2023-01-28T05:49:21;10.7;;;9.81;;
64022;SDS011;50264;52.088;5.296;2023-01-28T05:52:34;11.8;;;10.7;;
64022;SDS011;50264;52.088;5.296;2023-01-28T05:54:11;12.3;;;11.0;;
64022;SDS011;50264;52.088;5.296;2023-01-28T05:55:47;11.5;;;10.3;;
64022;SDS011;50264;52.088;5.296;2023-01-28T05:59:00;11.4;;;10.3;;
64022;SDS011;50264;52.088;5.296;2023-01-28T06:00:37;11.8;;;10.7;;
64022;SDS011;50264;52.088;5.296;2023-01-28T06:02:13;11.6;;;10.5;;
64022;SDS011;50264;52.088;5.296;2023-01-28T06:03:49;10.4;;;9.4;;
64022;SDS011;50264;52.088;5.296;2023-01-28T06:07:02;11.4;;;10.3;;
64022;SDS011;50264;52.088;5.296;2023-01-28T06:08:38;9.6;;;8.81;;
64022;SDS011;50264;52.088;5.296;2023-01-28T06:10:16;11.5;;;10.3;;
64022;SDS011;50264;52.088;5.296;2023-01-28T06:13:29;12.5;;;11.1;;
64022;SDS011;50264;52.088;5.296;2023-01-28T06:15:06;10.4;;;9.4;;
64022;SDS011;50264;52.088;5.296;2023-01-28T06:16:43;11.8;;;10.6;;
64022;SDS011;50264;52.088;5.296;2023-01-28T06:19:55;10.4;;;9.21;;
64022;SDS011;50264;52.088;5.296;2023-01-28T06:21:31;10.7;;;9.71;;
64022;SDS011;50264;52.088;5.296;2023-01-28T06:23:08;11.0;;;9.81;;
64022;SDS011;50264;52.088;5.296;2023-01-28T06:24:45;11.2;;;10.1;;
64022;SDS011;50264;52.088;5.296;2023-01-28T06:27:57;11.5;;;10.4;;
64022;SDS011;50264;52.088;5.296;2023-01-28T06:29:34;11.6;;;10.5;;
64022;SDS011;50264;52.088;5.296;2023-01-28T06:31:11;12.5;;;10.1;;
64022;SDS011;50264;52.088;5.296;2023-01-28T06:34:29;10.9;;;9.5;;
64022;SDS011;50264;52.088;5.296;2023-01-28T06:36:06;10.8;;;9.71;;
64022;SDS011;50264;52.088;5.296;2023-01-28T06:37:44;10.9;;;10.0;;
64022;SDS011;50264;52.088;5.296;2023-01-28T06:40:57;11.3;;;10.21;;
64022;SDS011;50264;52.088;5.296;2023-01-28T06:42:33;12.0;;;10.7;;
64022;SDS011;50264;52.088;5.296;2023-01-28T06:44:10;12.3;;;10.5;;
64022;SDS011;50264;52.088;5.296;2023-01-28T06:45:47;11.8;;;10.6;;
64022;SDS011;50264;52.088;5.296;2023-01-28T06:48:59;11.6;;;10.6;;
64022;SDS011;50264;52.088;5.296;2023-01-28T06:50:35;12.0;;;10.9;;
64022;SDS011;50264;52.088;5.296;2023-01-28T06:52:11;11.8;;;10.5;;
64022;SDS011;50264;52.088;5.296;2023-01-28T06:55:23;11.7;;;10.6;;
64022;SDS011;50264;52.088;5.296;2023-01-28T06:56:59;12.4;;;11.2;;
64022;SDS011;50264;52.088;5.296;2023-01-28T06:58:36;12.8;;;11.3;;
64022;SDS011;50264;52.088;5.296;2023-01-28T07:01:51;11.9;;;10.9;;
64022;SDS011;50264;52.088;5.296;2023-01-28T07:03:27;12.4;;;10.9;;
64022;SDS011;50264;52.088;5.296;2023-01-28T07:05:03;11.0;;;9.9;;
64022;SDS011;50264;52.088;5.296;2023-01-28T07:06:40;12.7;;;11.4;;
64022;SDS011;50264;52.088;5.296;2023-01-28T07:09:52;12.1;;;10.8;;
64022;SDS011;50264;52.088;5.296;2023-01-28T07:11:29;12.9;;;11.6;;
64022;SDS011;50264;52.088;5.296;2023-01-28T07:13:05;12.0;;;10.9;;
64022;SDS011;50264;52.088;5.296;2023-01-28T07:16:17;12.0;;;10.8;;
64022;SDS011;50264;52.088;5.296;2023-01-28T07:17:53;13.0;;;11.8;;
64022;SDS011;50264;52.088;5.296;2023-01-28T07:19:29;13.8;;;11.8;;
64022;SDS011;50264;52.088;5.296;2023-01-28T07:22:43;13.1;;;11.8;;
64022;SDS011;50264;52.088;5.296;2023-01-28T07:24:20;14.3;;;12.4;;
64022;SDS011;50264;52.088;5.296;2023-01-28T07:25:59;12.7;;;11.3;;
64022;SDS011;50264;52.088;5.296;2023-01-28T07:27:36;14.9;;;11.6;;
64022;SDS011;50264;52.088;5.296;2023-01-28T07:30:48;13.2;;;11.9;;
64022;SDS011;50264;52.088;5.296;2023-01-28T07:32:26;11.2;;;10.21;;
64022;SDS011;50264;52.088;5.296;2023-01-28T07:34:02;13.5;;;12.2;;
64022;SDS011;50264;52.088;5.296;2023-01-28T07:37:14;13.4;;;12.1;;
64022;SDS011;50264;52.088;5.296;2023-01-28T07:38:51;14.0;;;12.7;;
64022;SDS011;50264;52.088;5.296;2023-01-28T07:40:27;12.1;;;10.9;;
64022;SDS011;50264;52.088;5.296;2023-01-28T07:43:40;14.7;;;11.9;;
64022;SDS011;50264;52.088;5.296;2023-01-28T07:45:16;12.8;;;11.4;;
64022;SDS011;50264;52.088;5.296;2023-01-28T07:46:53;13.5;;;11.4;;
64022;SDS011;50264;52.088;5.296;2023-01-28T07:48:30;12.4;;;11.2;;
64022;SDS011;50264;52.088;5.296;2023-01-28T07:51:46;17.11;;;12.7;;
64022;SDS011;50264;52.088;5.296;2023-01-28T07:53:22;13.1;;;11.8;;
64022;SDS011;50264;52.088;5.296;2023-01-28T07:54:58;13.5;;;11.7;;
64022;SDS011;50264;52.088;5.296;2023-01-28T07:58:10;13.2;;;11.8;;
64022;SDS011;50264;52.088;5.296;2023-01-28T07:59:47;14.0;;;11.6;;
64022;SDS011;50264;52.088;5.296;2023-01-28T08:01:23;14.9;;;13.4;;
64022;SDS011;50264;52.088;5.296;2023-01-28T08:04:40;12.6;;;11.5;;
64022;SDS011;50264;52.088;5.296;2023-01-28T08:06:17;12.9;;;11.7;;
64022;SDS011;50264;52.088;5.296;2023-01-28T08:07:53;12.7;;;11.5;;
64022;SDS011;50264;52.088;5.296;2023-01-28T08:09:29;12.5;;;11.3;;
64022;SDS011;50264;52.088;5.296;2023-01-28T08:12:49;13.0;;;11.7;;
64022;SDS011;50264;52.088;5.296;2023-01-28T08:14:26;12.0;;;10.9;;
64022;SDS011;50264;52.088;5.296;2023-01-28T08:16:04;11.6;;;10.6;;
64022;SDS011;50264;52.088;5.296;2023-01-28T08:19:17;11.6;;;10.6;;
64022;SDS011;50264;52.088;5.296;2023-01-28T08:20:54;16.9;;;11.8;;
64022;SDS011;50264;52.088;5.296;2023-01-28T08:22:31;13.2;;;11.5;;
64022;SDS011;50264;52.088;5.296;2023-01-28T08:24:07;12.4;;;11.2;;
64022;SDS011;50264;52.088;5.296;2023-01-28T08:27:20;11.3;;;10.3;;
64022;SDS011;50264;52.088;5.296;2023-01-28T08:28:56;13.3;;;12.0;;
64022;SDS011;50264;52.088;5.296;2023-01-28T08:30:33;14.4;;;11.9;;
64022;SDS011;50264;52.088;5.296;2023-01-28T08:33:46;12.3;;;11.1;;
64022;SDS011;50264;52.088;5.296;2023-01-28T08:35:22;13.1;;;11.9;;
64022;SDS011;50264;52.088;5.296;2023-01-28T08:36:58;12.4;;;11.3;;
64022;SDS011;50264;52.088;5.296;2023-01-28T08:40:10;12.2;;;11.0;;
64022;SDS011;50264;52.088;5.296;2023-01-28T08:41:47;10.9;;;9.81;;
64022;SDS011;50264;52.088;5.296;2023-01-28T08:43:23;10.5;;;9.5;;
64022;SDS011;50264;52.088;5.296;2023-01-28T08:45:00;11.4;;;10.3;;
64022;SDS011;50264;52.088;5.296;2023-01-28T08:48:13;12.5;;;8.9;;
64022;SDS011;50264;52.088;5.296;2023-01-28T08:49:52;11.6;;;10.5;;
64022;SDS011;50264;52.088;5.296;2023-01-28T08:51:28;12.6;;;11.4;;
64022;SDS011;50264;52.088;5.296;2023-01-28T08:54:45;11.7;;;10.5;;
64022;SDS011;50264;52.088;5.296;2023-01-28T08:56:21;12.5;;;11.2;;
64022;SDS011;50264;52.088;5.296;2023-01-28T08:58:00;10.7;;;9.71;;
64022;SDS011;50264;52.088;5.296;2023-01-28T08:59:43;11.1;;;10.1;;
64022;SDS011;50264;52.088;5.296;2023-01-28T09:02:56;12.3;;;11.0;;
64022;SDS011;50264;52.088;5.296;2023-01-28T09:04:32;12.0;;;10.8;;
64022;SDS011;50264;52.088;5.296;2023-01-28T09:06:08;11.7;;;10.6;;
64022;SDS011;50264;52.088;5.296;2023-01-28T09:09:21;11.2;;;10.1;;
64022;SDS011;50264;52.088;5.296;2023-01-28T09:10:58;11.6;;;10.6;;
64022;SDS011;50264;52.088;5.296;2023-01-28T09:12:34;11.8;;;10.7;;
64022;SDS011;50264;52.088;5.296;2023-01-28T09:17:26;11.9;;;10.7;;
64022;SDS011;50264;52.088;5.296;2023-01-28T09:19:02;13.0;;;10.8;;
64022;SDS011;50264;52.088;5.296;2023-01-28T09:20:38;12.2;;;11.0;;
64022;SDS011;50264;52.088;5.296;2023-01-28T09:23:54;13.1;;;10.7;;
64022;SDS011;50264;52.088;5.296;2023-01-28T09:25:31;10.21;;;9.21;;
64022;SDS011;50264;52.088;5.296;2023-01-28T09:27:07;11.4;;;9.71;;
64022;SDS011;50264;52.088;5.296;2023-01-28T09:30:23;10.5;;;9.5;;
64022;SDS011;50264;52.088;5.296;2023-01-28T09:32:00;12.7;;;10.6;;
64022;SDS011;50264;52.088;5.296;2023-01-28T09:33:38;9.71;;;8.71;;
64022;SDS011;50264;52.088;5.296;2023-01-28T09:35:16;11.2;;;10.0;;
64022;SDS011;50264;52.088;5.296;2023-01-28T09:38:29;11.6;;;10.5;;
64022;SDS011;50264;52.088;5.296;2023-01-28T09:40:08;10.4;;;9.4;;
64022;SDS011;50264;52.088;5.296;2023-01-28T09:41:54;11.1;;;9.9;;
64022;SDS011;50264;52.088;5.296;2023-01-28T09:43:58;10.6;;;9.6;;
64022;SDS011;50264;52.088;5.296;2023-01-28T09:45:41;10.4;;;9.4;;
64022;SDS011;50264;52.088;5.296;2023-01-28T09:49:05;10.3;;;9.21;;
64022;SDS011;50264;52.088;5.296;2023-01-28T09:50:52;9.6;;;8.71;;
64022;SDS011;50264;52.088;5.296;2023-01-28T09:52:29;9.6;;;8.81;;
64022;SDS011;50264;52.088;5.296;2023-01-28T09:54:14;10.3;;;9.31;;
64022;SDS011;50264;52.088;5.296;2023-01-28T09:56:02;9.6;;;8.71;;
64022;SDS011;50264;52.088;5.296;2023-01-28T09:59:23;10.0;;;8.71;;
64022;SDS011;50264;52.088;5.296;2023-01-28T10:01:02;9.9;;;8.9;;
64022;SDS011;50264;52.088;5.296;2023-01-28T10:03:20;10.0;;;9.1;;
64022;SDS011;50264;52.088;5.296;2023-01-28T10:05:13;10.3;;;8.4;;
64022;SDS011;50264;52.088;5.296;2023-01-28T10:06:57;11.6;;;8.5;;
64022;SDS011;50264;52.088;5.296;2023-01-28T10:09:03;10.6;;;7.9;;
64022;SDS011;50264;52.088;5.296;2023-01-28T10:11:09;9.9;;;8.9;;
64022;SDS011;50264;52.088;5.296;2023-01-28T10:12:59;9.6;;;8.6;;
64022;SDS011;50264;52.088;5.296;2023-01-28T10:16:41;7.3;;;6.6;;
64022;SDS011;50264;52.088;5.296;2023-01-28T10:18:26;9.4;;;7.5;;
64022;SDS011;50264;52.088;5.296;2023-01-28T10:20:13;8.9;;;8.0;;
64022;SDS011;50264;52.088;5.296;2023-01-28T10:21:58;6.3;;;5.7;;
64022;SDS011;50264;52.088;5.296;2023-01-28T10:23:40;9.5;;;6.3;;
64022;SDS011;50264;52.088;5.296;2023-01-28T10:25:30;7.6;;;6.7;;
64022;SDS011;50264;52.088;5.296;2023-01-28T10:28:53;9.71;;;7.3;;
64022;SDS011;50264;52.088;5.296;2023-01-28T10:30:33;7.4;;;6.2;;
64022;SDS011;50264;52.088;5.296;2023-01-28T10:32:22;6.4;;;5.9;;
64022;SDS011;50264;52.088;5.296;2023-01-28T10:34:04;7.0;;;5.5;;
64022;SDS011;50264;52.088;5.296;2023-01-28T10:37:18;6.2;;;5.5;;
64022;SDS011;50264;52.088;5.296;2023-01-28T10:38:55;7.0;;;5.2;;
64022;SDS011;50264;52.088;5.296;2023-01-28T10:40:31;7.0;;;5.8;;
64022;SDS011;50264;52.088;5.296;2023-01-28T10:42:16;6.4;;;5.5;;
64022;SDS011;50264;52.088;5.296;2023-01-28T10:45:39;6.7;;;5.9;;
64022;SDS011;50264;52.088;5.296;2023-01-28T10:47:30;6.1;;;5.6;;
64022;SDS011;50264;52.088;5.296;2023-01-28T10:49:14;6.7;;;5.4;;
64022;SDS011;50264;52.088;5.296;2023-01-28T10:50:54;6.4;;;5.7;;
64022;SDS011;50264;52.088;5.296;2023-01-28T10:52:32;6.1;;;5.5;;
64022;SDS011;50264;52.088;5.296;2023-01-28T10:56:03;10.5;;;5.5;;
64022;SDS011;50264;52.088;5.296;2023-01-28T10:57:42;5.6;;;5.11;;
64022;SDS011;50264;52.088;5.296;2023-01-28T10:59:21;5.5;;;5.0;;
64022;SDS011;50264;52.088;5.296;2023-01-28T11:01:02;5.6;;;5.0;;
64022;SDS011;50264;52.088;5.296;2023-01-28T11:04:20;5.9;;;5.3;;
64022;SDS011;50264;52.088;5.296;2023-01-28T11:05:59;5.7;;;5.11;;
64022;SDS011;50264;52.088;5.296;2023-01-28T11:07:37;8.6;;;5.4;;
64022;SDS011;50264;52.088;5.296;2023-01-28T11:10:59;7.0;;;5.3;;
64022;SDS011;50264;52.088;5.296;2023-01-28T11:12:35;7.0;;;4.91;;
64022;SDS011;50264;52.088;5.296;2023-01-28T11:14:18;5.8;;;5.2;;
64022;SDS011;50264;52.088;5.296;2023-01-28T11:15:58;7.0;;;5.7;;
64022;SDS011;50264;52.088;5.296;2023-01-28T11:21:13;6.2;;;5.11;;
64022;SDS011;50264;52.088;5.296;2023-01-28T11:22:54;5.11;;;4.7;;
64022;SDS011;50264;52.088;5.296;2023-01-28T11:24:32;6.5;;;5.11;;
64022;SDS011;50264;52.088;5.296;2023-01-28T11:26:13;6.0;;;4.7;;
64022;SDS011;50264;52.088;5.296;2023-01-28T11:29:30;5.8;;;5.3;;
64022;SDS011;50264;52.088;5.296;2023-01-28T11:31:09;6.6;;;5.6;;
64022;SDS011;50264;52.088;5.296;2023-01-28T11:32:53;5.3;;;4.61;;
64022;SDS011;50264;52.088;5.296;2023-01-28T11:34:46;5.8;;;5.2;;
64022;SDS011;50264;52.088;5.296;2023-01-28T11:38:10;9.6;;;5.4;;
64022;SDS011;50264;52.088;5.296;2023-01-28T11:40:01;7.8;;;4.8;;
64022;SDS011;50264;52.088;5.296;2023-01-28T11:41:48;6.0;;;5.0;;
64022;SDS011;50264;52.088;5.296;2023-01-28T11:43:27;9.31;;;5.5;;
64022;SDS011;50264;52.088;5.296;2023-01-28T11:45:08;7.3;;;5.2;;
64022;SDS011;50264;52.088;5.296;2023-01-28T11:49:32;5.9;;;4.91;;
64022;SDS011;50264;52.088;5.296;2023-01-28T11:51:26;7.2;;;4.41;;
64022;SDS011;50264;52.088;5.296;2023-01-28T11:53:16;4.61;;;3.5;;
64022;SDS011;50264;52.088;5.296;2023-01-28T11:55:39;3.8;;;2.9;;
64022;SDS011;50264;52.088;5.296;2023-01-28T11:57:25;7.5;;;4.0;;
64022;SDS011;50264;52.088;5.296;2023-01-28T12:01:08;4.7;;;3.5;;
64022;SDS011;50264;52.088;5.296;2023-01-28T12:02:52;5.9;;;3.4;;
64022;SDS011;50264;52.088;5.296;2023-01-28T12:04:41;4.7;;;3.3;;
64022;SDS011;50264;52.088;5.296;2023-01-28T12:06:40;6.3;;;3.5;;
64022;SDS011;50264;52.088;5.296;2023-01-28T12:08:33;5.6;;;3.5;;
64022;SDS011;50264;52.088;5.296;2023-01-28T12:10:19;6.2;;;3.2;;
64022;SDS011;50264;52.088;5.296;2023-01-28T12:12:15;3.8;;;3.5;;
64022;SDS011;50264;52.088;5.296;2023-01-28T12:14:15;3.8;;;3.5;;
64022;SDS011;50264;52.088;5.296;2023-01-28T12:18:29;3.5;;;3.2;;
64022;SDS011;50264;52.088;5.296;2023-01-28T12:22:10;3.9;;;2.8;;
64022;SDS011;50264;52.088;5.296;2023-01-28T12:25:28;7.7;;;3.3;;
64022;SDS011;50264;52.088;5.296;2023-01-28T12:27:22;8.9;;;3.5;;
64022;SDS011;50264;52.088;5.296;2023-01-28T12:29:14;5.6;;;3.7;;
64022;SDS011;50264;52.088;5.296;2023-01-28T12:31:06;3.7;;;2.8;;
64022;SDS011;50264;52.088;5.296;2023-01-28T12:33:05;2.6;;;2.4;;
64022;SDS011;50264;52.088;5.296;2023-01-28T12:37:34;3.0;;;2.7;;
64022;SDS011;50264;52.088;5.296;2023-01-28T12:39:27;5.11;;;3.1;;
64022;SDS011;50264;52.088;5.296;2023-01-28T12:42:59;3.1;;;2.4;;
64022;SDS011;50264;52.088;5.296;2023-01-28T12:44:41;4.2;;;2.1;;
64022;SDS011;50264;52.088;5.296;2023-01-28T12:46:27;3.2;;;2.5;;
64022;SDS011;50264;52.088;5.296;2023-01-28T12:48:15;4.2;;;3.2;;
64022;SDS011;50264;52.088;5.296;2023-01-28T12:49:58;4.61;;;3.8;;
64022;SDS011;50264;52.088;5.296;2023-01-28T12:51:48;3.2;;;2.8;;
64022;SDS011;50264;52.088;5.296;2023-01-28T12:55:19;7.3;;;3.0;;
64022;SDS011;50264;52.088;5.296;2023-01-28T12:57:13;3.0;;;2.7;;
64022;SDS011;50264;52.088;5.296;2023-01-28T12:58:59;2.7;;;2.31;;
64022;SDS011;50264;52.088;5.296;2023-01-28T13:00:41;6.0;;;3.2;;
64022;SDS011;50264;52.088;5.296;2023-01-28T13:02:24;5.0;;;3.4;;
64022;SDS011;50264;52.088;5.296;2023-01-28T13:05:48;10.5;;;3.1;;
64022;SDS011;50264;52.088;5.296;2023-01-28T13:07:31;4.91;;;2.9;;
64022;SDS011;50264;52.088;5.296;2023-01-28T13:09:14;3.5;;;3.1;;
64022;SDS011;50264;52.088;5.296;2023-01-28T13:10:54;3.6;;;3.1;;
64022;SDS011;50264;52.088;5.296;2023-01-28T13:14:13;3.1;;;2.8;;
64022;SDS011;50264;52.088;5.296;2023-01-28T13:15:50;3.4;;;3.1;;
64022;SDS011;50264;52.088;5.296;2023-01-28T13:17:27;3.8;;;2.9;;
64022;SDS011;50264;52.088;5.296;2023-01-28T13:19:07;6.2;;;3.1;;
64022;SDS011;50264;52.088;5.296;2023-01-28T13:22:35;5.3;;;2.5;;
64022;SDS011;50264;52.088;5.296;2023-01-28T13:24:21;3.4;;;2.31;;
64022;SDS011;50264;52.088;5.296;2023-01-28T13:26:10;2.5;;;2.31;;
64022;SDS011;50264;52.088;5.296;2023-01-28T13:28:05;6.8;;;3.2;;
64022;SDS011;50264;52.088;5.296;2023-01-28T13:30:03;3.9;;;2.6;;
64022;SDS011;50264;52.088;5.296;2023-01-28T13:32:00;5.8;;;2.31;;
64022;SDS011;50264;52.088;5.296;2023-01-28T13:33:38;6.1;;;2.5;;
64022;SDS011;50264;52.088;5.296;2023-01-28T13:37:14;6.0;;;2.6;;